Time;durP1;ratioP1;P1;durP2;ratioP2;P2;SDS_P1;SDS_P2;PMS_P1;PMS_P2;Temp;Humidity;BMP_temperature;BMP_pressure;BME280_temperature;BME280_humidity;BME280_pressure;Samples;Min_cycle;Max_cycle;Signal;HPM_P1;HPM_P2
2022/01/04 00:02:12;;;;;;;28.27;6.90;;;7.90;99.90;;;;;;4929931;29;20098;-70
2022/01/04 00:04:38;;;;;;;29.37;7.17;;;7.90;99.90;;;;;;4938990;29;20040;-70
2022/01/04 00:07:04;;;;;;;38.67;7.57;;;7.90;99.90;;;;;;4941533;29;20322;-71
2022/01/04 00:09:29;;;;;;;24.13;7.00;;;7.90;99.90;;;;;;4909344;29;20052;-71
2022/01/04 00:14:22;;;;;;;36.78;6.15;;;7.90;99.90;;;;;;4915800;29;20112;-71
2022/01/04 00:16:50;;;;;;;22.90;5.40;;;7.90;99.90;;;;;;4901816;29;20055;-71
2022/01/04 00:19:17;;;;;;;26.90;6.57;;;7.90;99.90;;;;;;4931621;29;20385;-70
2022/01/04 00:21:43;;;;;;;25.08;6.47;;;7.90;99.90;;;;;;4942852;29;20491;-70
2022/01/04 00:24:09;;;;;;;37.22;7.20;;;7.80;99.90;;;;;;4941534;29;20080;-71
2022/01/04 00:26:35;;;;;;;36.67;6.43;;;7.80;99.90;;;;;;4926044;29;20096;-71
2022/01/04 00:29:00;;;;;;;37.27;6.93;;;7.70;99.90;;;;;;4910337;29;20051;-70
2022/01/04 00:31:26;;;;;;;27.25;6.90;;;7.70;99.90;;;;;;4928016;29;20059;-71
2022/01/04 00:33:52;;;;;;;30.70;7.03;;;7.70;99.90;;;;;;4925941;29;20044;-70
2022/01/04 00:36:18;;;;;;;27.30;6.50;;;7.70;99.90;;;;;;4927834;29;20285;-71
2022/01/04 00:38:43;;;;;;;35.30;7.72;;;7.70;99.90;;;;;;4910086;29;20048;-70
2022/01/04 00:41:09;;;;;;;26.03;7.03;;;7.70;99.90;;;;;;4894105;29;20071;-70
2022/01/04 00:43:35;;;;;;;35.05;6.82;;;7.70;99.90;;;;;;4910285;29;20068;-71
2022/01/04 00:46:01;;;;;;;38.60;7.47;;;7.70;99.90;;;;;;4926434;29;20060;-70
2022/01/04 00:50:53;;;;;;;34.25;6.68;;;7.70;99.90;;;;;;4912910;29;20054;-70
2022/01/04 00:53:20;;;;;;;28.65;6.95;;;7.70;99.90;;;;;;4923690;29;20056;-71
2022/01/04 00:55:45;;;;;;;;;;;7.70;99.90;;;;;;4928635;29;20182;-71
2022/01/04 00:58:12;;;;;;;37.92;7.80;;;7.60;99.90;;;;;;4927958;29;19986;-71
2022/01/04 01:00:38;;;;;;;40.55;8.50;;;7.60;99.90;;;;;;4911696;29;20112;-71
2022/01/04 01:03:04;;;;;;;;;;;7.70;99.90;;;;;;4910178;29;20069;-71
2022/01/04 01:05:31;;;;;;;32.78;7.65;;;7.60;99.90;;;;;;4908350;29;19923;-71
2022/01/04 01:07:57;;;;;;;33.15;8.32;;;7.60;99.90;;;;;;4894971;29;20067;-71
2022/01/04 01:12:56;;;;;;;26.48;7.57;;;7.60;99.90;;;;;;4909864;29;20209;-71
2022/01/04 01:15:22;;;;;;;30.55;9.70;;;7.70;99.90;;;;;;4927353;29;20083;-71
2022/01/04 01:17:48;;;;;;;35.92;8.40;;;7.70;99.90;;;;;;4941085;29;20543;-71
2022/01/04 01:20:14;;;;;;;33.08;8.55;;;7.70;99.90;;;;;;4943757;29;20082;-70
2022/01/04 01:22:42;;;;;;;32.42;7.93;;;7.70;99.90;;;;;;4941128;29;20461;-72
2022/01/04 01:25:08;;;;;;;35.70;8.93;;;7.70;99.90;;;;;;4891365;29;20084;-71
2022/01/04 01:27:34;;;;;;;;;;;7.70;99.90;;;;;;4902564;29;20060;-71
2022/01/04 01:29:59;;;;;;;32.80;8.82;;;7.70;99.90;;;;;;4928689;29;19937;-72
2022/01/04 01:32:25;;;;;;;42.87;9.87;;;7.70;99.90;;;;;;4909635;29;20484;-70
2022/01/04 01:34:51;;;;;;;29.20;8.53;;;7.70;99.90;;;;;;4926884;29;20315;-72
2022/01/04 01:37:16;;;;;;;35.53;8.80;;;7.70;99.90;;;;;;4909166;29;20432;-72
2022/01/04 01:39:42;;;;;;;31.73;9.55;;;7.80;99.90;;;;;;4894568;29;20051;-72
2022/01/04 01:42:08;;;;;;;38.63;8.53;;;7.80;99.90;;;;;;4926403;29;20060;-72
2022/01/04 01:44:35;;;;;;;40.35;8.15;;;7.80;99.90;;;;;;4909408;29;20047;-70
2022/01/04 01:47:02;;;;;;;30.40;9.35;;;7.90;99.90;;;;;;4895136;29;20063;-71
2022/01/04 01:49:28;;;;;;;;;;;7.90;99.90;;;;;;4921707;29;20535;-71
2022/01/04 01:51:54;;;;;;;27.65;7.93;;;7.80;99.90;;;;;;4909446;29;19930;-71
2022/01/04 01:54:20;;;;;;;34.60;8.13;;;7.80;99.90;;;;;;4909052;29;20048;-71
2022/01/04 01:56:45;;;;;;;29.60;9.35;;;7.90;99.90;;;;;;4911353;29;20127;-71
2022/01/04 01:59:15;;;;;;;36.65;8.25;;;7.90;99.90;;;;;;4909750;29;20397;-72
2022/01/04 02:01:40;;;;;;;38.25;8.90;;;7.90;99.90;;;;;;4926581;29;20081;-71
2022/01/04 02:04:06;;;;;;;35.20;8.50;;;7.90;99.90;;;;;;4934421;29;20052;-72
2022/01/04 02:06:32;;;;;;;41.23;9.47;;;7.90;99.90;;;;;;4928379;29;20640;-71
2022/01/04 02:08:58;;;;;;;39.58;9.88;;;7.90;99.90;;;;;;4927781;29;20107;-71
2022/01/04 02:11:28;;;;;;;31.13;9.68;;;7.90;99.90;;;;;;4909982;29;20064;-72
2022/01/04 02:13:58;;;;;;;34.67;8.88;;;7.90;99.90;;;;;;4923157;29;20059;-70
2022/01/04 02:16:29;;;;;;;35.72;8.82;;;8.00;99.90;;;;;;4893767;29;20062;-72
2022/01/04 02:19:03;;;;;;;36.33;8.27;;;7.90;99.90;;;;;;4892818;29;20060;-72
2022/01/04 02:21:30;;;;;;;43.28;9.73;;;7.90;99.90;;;;;;4901972;29;20134;-71
2022/01/04 02:23:55;;;;;;;39.72;9.63;;;7.90;99.90;;;;;;4893543;29;20056;-72
2022/01/04 02:26:21;;;;;;;32.10;8.30;;;7.90;99.90;;;;;;4909491;29;20056;-71
2022/01/04 02:28:48;;;;;;;34.42;8.48;;;7.90;99.90;;;;;;4908210;29;20056;-71
2022/01/04 02:31:14;;;;;;;36.10;7.70;;;7.90;99.90;;;;;;4908140;29;20075;-70
2022/01/04 02:33:40;;;;;;;39.70;9.63;;;7.90;99.90;;;;;;4911723;29;20083;-72
2022/01/04 02:36:05;;;;;;;34.97;9.37;;;7.90;99.90;;;;;;4922878;29;20055;-72
2022/01/04 02:38:33;;;;;;;30.87;8.63;;;7.90;99.90;;;;;;4911981;29;20048;-71
2022/01/04 02:40:59;;;;;;;37.05;7.45;;;7.90;99.90;;;;;;4912248;29;20303;-69
2022/01/04 02:43:25;;;;;;;40.70;8.20;;;7.90;99.90;;;;;;4911452;29;20103;-71
2022/01/04 02:45:50;;;;;;;38.77;8.53;;;7.90;99.90;;;;;;4930399;29;20051;-71
2022/01/04 02:48:16;;;;;;;39.93;7.73;;;7.90;99.90;;;;;;4929381;29;20054;-71
2022/01/04 02:50:42;;;;;;;27.45;7.97;;;7.90;99.90;;;;;;4929201;29;20040;-71
2022/01/04 02:53:08;;;;;;;41.17;8.75;;;7.90;99.90;;;;;;4910144;29;20111;-71
2022/01/04 02:55:33;;;;;;;40.20;7.77;;;7.90;99.90;;;;;;4911761;29;20052;-71
2022/01/04 02:57:59;;;;;;;39.03;8.53;;;7.90;99.90;;;;;;4912030;29;20162;-71
2022/01/04 03:00:25;;;;;;;33.27;8.17;;;7.90;99.90;;;;;;4912294;29;20292;-71
2022/01/04 03:02:51;;;;;;;;;;;7.90;99.90;;;;;;4928092;29;20056;-71
2022/01/04 03:05:17;;;;;;;44.03;8.48;;;7.90;99.90;;;;;;4927747;29;19969;-72
2022/01/04 03:07:43;;;;;;;32.72;7.43;;;7.90;99.90;;;;;;4911649;29;20108;-71
2022/01/04 03:10:09;;;;;;;32.17;8.93;;;7.90;99.90;;;;;;4911865;29;20180;-72
2022/01/04 03:12:36;;;;;;;28.88;8.65;;;7.90;99.90;;;;;;4912251;29;20043;-71
2022/01/04 03:15:04;;;;;;;37.42;8.48;;;8.00;99.90;;;;;;4910027;29;20044;-71
2022/01/04 03:17:29;;;;;;;39.55;7.82;;;8.00;99.90;;;;;;4912851;29;20056;-71
2022/01/04 03:19:55;;;;;;;31.00;7.57;;;8.00;99.90;;;;;;4943779;29;20044;-71
2022/01/04 03:22:21;;;;;;;32.40;8.30;;;8.00;99.90;;;;;;4928817;29;20052;-71
2022/01/04 03:24:46;;;;;;;39.17;8.18;;;8.00;99.90;;;;;;4923616;29;20076;-71
2022/01/04 03:27:13;;;;;;;37.43;7.40;;;8.00;99.90;;;;;;4928432;29;20154;-71
2022/01/04 03:29:38;;;;;;;24.27;7.82;;;8.10;99.90;;;;;;4928531;29;20134;-71
2022/01/04 03:32:05;;;;;;;38.63;8.23;;;8.10;99.90;;;;;;4928540;29;20059;-72
2022/01/04 03:34:30;;;;;;;24.75;8.70;;;8.00;99.90;;;;;;4927772;29;20044;-72
2022/01/04 03:36:56;;;;;;;33.23;8.00;;;8.00;99.90;;;;;;4910116;29;20143;-72
2022/01/04 03:39:22;;;;;;;37.07;8.60;;;8.10;99.90;;;;;;4920762;29;20055;-71
2022/01/04 03:41:47;;;;;;;34.40;9.13;;;8.10;99.90;;;;;;4911125;29;20056;-72
2022/01/04 03:44:18;;;;;;;29.10;8.05;;;8.10;99.90;;;;;;4927260;29;20292;-72
2022/01/04 03:46:45;;;;;;;41.47;8.13;;;8.10;99.90;;;;;;4908259;29;20084;-71
2022/01/04 03:49:11;;;;;;;40.38;8.75;;;8.00;99.90;;;;;;4928411;29;20115;-71
2022/01/04 03:51:37;;;;;;;28.90;8.17;;;8.10;99.90;;;;;;4911253;29;20060;-72
2022/01/04 03:54:02;;;;;;;29.50;7.67;;;8.10;99.90;;;;;;4895013;29;20307;-72
2022/01/04 03:56:28;;;;;;;30.77;8.60;;;8.10;99.90;;;;;;4942351;29;20044;-72
2022/01/04 03:58:54;;;;;;;40.17;9.10;;;8.10;99.90;;;;;;4910912;29;20052;-71
2022/01/04 04:01:20;;;;;;;38.30;9.35;;;8.10;99.90;;;;;;4911059;29;20304;-69
2022/01/04 04:03:45;;;;;;;49.80;8.63;;;8.10;99.90;;;;;;4928034;29;20050;-72
2022/01/04 04:06:11;;;;;;;36.05;8.32;;;8.10;99.90;;;;;;4910550;29;20051;-72
2022/01/04 04:08:37;;;;;;;26.80;7.70;;;8.10;99.90;;;;;;4908460;29;20051;-71
2022/01/04 04:11:03;;;;;;;38.30;8.97;;;8.10;99.90;;;;;;4894699;29;20293;-71
2022/01/04 04:13:28;;;;;;;35.55;7.63;;;8.10;99.90;;;;;;4910736;29;20058;-71
2022/01/04 04:15:54;;;;;;;41.13;8.68;;;8.10;99.90;;;;;;4910274;29;20104;-71
2022/01/04 04:18:20;;;;;;;34.03;8.45;;;8.10;99.90;;;;;;4915702;29;20063;-72
2022/01/04 04:20:46;;;;;;;42.97;8.40;;;8.00;99.90;;;;;;4910094;29;20155;-71
2022/01/04 04:23:11;;;;;;;34.88;8.70;;;8.10;99.90;;;;;;4894476;29;20068;-72
2022/01/04 04:25:37;;;;;;;31.50;8.18;;;8.10;99.90;;;;;;4910906;29;20059;-72
2022/01/04 04:28:03;;;;;;;37.90;9.52;;;8.10;99.90;;;;;;4941201;29;20048;-72
2022/01/04 04:30:29;;;;;;;32.30;8.20;;;8.10;99.90;;;;;;4910290;29;20048;-72
2022/01/04 04:32:55;;;;;;;36.97;9.05;;;8.10;99.90;;;;;;4910515;29;20045;-71
2022/01/04 04:35:22;;;;;;;32.25;7.95;;;8.10;99.90;;;;;;4940537;29;20048;-72
2022/01/04 04:37:47;;;;;;;30.08;9.02;;;8.10;99.90;;;;;;4941820;29;20052;-71
2022/01/04 04:40:13;;;;;;;34.92;9.00;;;8.10;99.90;;;;;;4909827;29;20062;-70
2022/01/04 04:42:40;;;;;;;33.72;9.07;;;8.10;99.90;;;;;;4927278;29;20055;-71
2022/01/04 04:45:07;;;;;;;35.67;9.10;;;8.10;99.90;;;;;;4927377;29;20139;-71
2022/01/04 04:47:32;;;;;;;33.92;8.52;;;8.00;99.90;;;;;;4910195;29;20045;-71
2022/01/04 04:49:58;;;;;;;36.08;8.48;;;8.00;99.90;;;;;;4908746;29;20522;-73
2022/01/04 04:52:24;;;;;;;33.55;8.27;;;8.00;99.90;;;;;;4941147;29;20111;-70
2022/01/04 04:54:49;;;;;;;43.43;9.07;;;8.00;99.90;;;;;;4926822;29;20052;-72
2022/01/04 04:57:16;;;;;;;44.65;9.80;;;8.00;99.90;;;;;;4926996;29;20040;-72
2022/01/04 04:59:42;;;;;;;39.22;9.88;;;8.00;99.90;;;;;;4908605;29;20043;-71
2022/01/04 05:02:08;;;;;;;32.22;9.23;;;8.00;99.90;;;;;;4918950;29;20075;-72
2022/01/04 05:04:34;;;;;;;34.38;10.20;;;8.00;99.90;;;;;;4894016;29;20051;-71
2022/01/04 05:07:00;;;;;;;;;;;8.00;99.90;;;;;;4910032;29;20520;-71
2022/01/04 05:09:26;;;;;;;36.60;9.25;;;7.90;99.90;;;;;;4909861;29;19930;-71
2022/01/04 05:11:51;;;;;;;45.40;10.73;;;8.00;99.90;;;;;;4904877;29;20059;-71
2022/01/04 05:14:17;;;;;;;34.93;10.50;;;8.00;99.90;;;;;;4909669;29;20404;-71
2022/01/04 05:16:43;;;;;;;42.67;10.65;;;8.00;99.90;;;;;;4927133;29;20044;-71
2022/01/04 05:19:08;;;;;;;41.87;11.40;;;8.00;99.90;;;;;;4923436;29;20058;-72
2022/01/04 05:21:35;;;;;;;29.43;9.67;;;8.00;99.90;;;;;;4921635;29;20300;-71
2022/01/04 05:24:01;;;;;;;34.33;9.80;;;8.00;99.90;;;;;;4909393;29;20075;-71
2022/01/04 05:26:26;;;;;;;28.42;10.63;;;8.10;99.90;;;;;;4898914;29;20056;-72
2022/01/04 05:28:52;;;;;;;38.73;11.37;;;8.00;99.90;;;;;;4909404;29;20056;-71
2022/01/04 05:31:23;;;;;;;36.37;10.80;;;8.10;99.90;;;;;;4926477;29;20300;-72
2022/01/04 05:33:48;;;;;;;37.95;11.63;;;8.10;99.90;;;;;;4909139;29;20391;-71
2022/01/04 05:36:14;;;;;;;31.53;11.77;;;8.00;99.90;;;;;;4909675;29;20112;-71
2022/01/04 05:38:40;;;;;;;37.07;11.13;;;8.00;99.90;;;;;;4926797;29;20519;-72
2022/01/04 05:41:06;;;;;;;32.33;11.05;;;8.00;99.90;;;;;;4926574;29;20312;-71
2022/01/04 05:43:32;;;;;;;34.60;11.38;;;8.00;99.90;;;;;;4893238;29;20150;-72
2022/01/04 05:45:57;;;;;;;29.07;10.73;;;7.90;99.90;;;;;;4909278;29;20084;-72
2022/01/04 05:48:24;;;;;;;44.13;12.50;;;7.90;99.90;;;;;;4926413;29;20379;-71
2022/01/04 05:50:50;;;;;;;41.00;11.25;;;7.90;99.90;;;;;;4909460;29;20056;-72
2022/01/04 05:53:16;;;;;;;34.10;11.03;;;7.90;99.90;;;;;;4908537;29;20064;-72
2022/01/04 05:55:41;;;;;;;31.15;11.02;;;7.90;99.90;;;;;;4926617;29;20067;-72
2022/01/04 05:58:07;;;;;;;35.37;12.53;;;7.90;99.90;;;;;;4909441;29;20052;-72
2022/01/04 06:00:33;;;;;;;29.00;10.63;;;7.80;99.90;;;;;;4909097;29;20723;-71
2022/01/04 06:03:00;;;;;;;30.77;11.77;;;7.80;99.90;;;;;;4926757;29;20360;-71
2022/01/04 06:05:27;;;;;;;45.38;13.07;;;7.80;99.90;;;;;;4907782;29;20375;-71
2022/01/04 06:07:53;;;;;;;41.20;12.75;;;7.80;99.90;;;;;;4910683;29;20064;-71
2022/01/04 06:10:19;;;;;;;49.67;12.90;;;7.80;99.90;;;;;;4912925;29;20055;-71
2022/01/04 06:15:14;;;;;;;36.60;12.80;;;7.90;99.90;;;;;;4921412;29;20056;-72
2022/01/04 06:17:49;;;;;;;43.13;12.52;;;7.90;99.90;;;;;;4914565;29;20475;-72
2022/01/04 06:20:21;;;;;;;32.50;11.52;;;7.90;99.90;;;;;;4936702;29;20052;-72
2022/01/04 06:22:48;;;;;;;39.65;13.88;;;7.90;99.90;;;;;;4912565;29;20048;-72
2022/01/04 06:25:17;;;;;;;38.85;12.18;;;7.90;99.90;;;;;;4892866;29;20060;-71
2022/01/04 06:27:47;;;;;;;51.28;12.75;;;7.90;99.90;;;;;;4894290;29;20472;-71
2022/01/04 06:30:16;;;;;;;46.83;11.93;;;7.90;99.90;;;;;;4912153;29;20067;-71
2022/01/04 06:32:43;;;;;;;33.05;10.75;;;7.90;99.90;;;;;;4929907;29;20040;-71
2022/01/04 06:35:09;;;;;;;45.53;12.32;;;7.90;99.90;;;;;;4944016;29;20491;-71
2022/01/04 06:37:34;;;;;;;46.33;11.88;;;8.00;99.90;;;;;;4927903;29;20059;-71
2022/01/04 06:40:00;;;;;;;32.00;10.73;;;8.00;99.90;;;;;;4912638;29;20152;-69
2022/01/04 06:42:26;;;;;;;40.55;11.65;;;8.00;99.90;;;;;;4912483;29;20056;-71
2022/01/04 06:44:52;;;;;;;48.07;11.53;;;8.00;99.90;;;;;;4911995;29;20094;-71
2022/01/04 06:47:17;;;;;;;28.63;9.17;;;8.00;99.90;;;;;;4896370;29;20098;-71
2022/01/04 06:49:43;;;;;;;39.37;10.63;;;8.00;99.90;;;;;;4896557;29;20312;-71
2022/01/04 06:52:09;;;;;;;43.30;11.30;;;8.00;99.90;;;;;;4912730;29;20093;-71
2022/01/04 06:54:34;;;;;;;35.23;10.20;;;8.00;99.90;;;;;;4929199;29;20140;-71
2022/01/04 06:57:00;;;;;;;34.55;9.80;;;8.00;99.90;;;;;;4926176;29;22148;-75
2022/01/04 06:59:26;;;;;;;39.92;9.80;;;8.00;99.90;;;;;;4915173;29;20472;-76
2022/01/04 07:01:52;;;;;;;42.83;10.95;;;7.90;99.90;;;;;;4928821;29;20091;-73
2022/01/04 07:04:18;;;;;;;44.50;10.02;;;7.90;99.90;;;;;;4929303;29;20059;-70
2022/01/04 07:06:44;;;;;;;32.33;8.77;;;7.90;99.90;;;;;;4931470;29;20071;-70
2022/01/04 07:09:10;;;;;;;28.47;8.97;;;7.90;99.90;;;;;;4913163;29;20055;-68
2022/01/04 07:11:37;;;;;;;27.40;7.93;;;7.90;99.90;;;;;;4927472;29;20301;-73
2022/01/04 07:14:03;;;;;;;26.92;7.05;;;7.90;99.90;;;;;;4911624;29;20184;-68
2022/01/04 07:16:29;;;;;;;28.48;7.95;;;7.90;99.90;;;;;;4911496;29;20111;-69
2022/01/04 07:18:55;;;;;;;33.53;9.23;;;7.90;99.90;;;;;;4930368;29;20040;-71
2022/01/04 07:21:21;;;;;;;25.43;8.67;;;7.90;99.90;;;;;;4928705;29;20392;-69
2022/01/04 07:23:50;;;;;;;29.08;7.95;;;7.90;99.90;;;;;;4920017;29;20312;-72
2022/01/04 07:26:17;;;;;;;37.53;7.85;;;7.90;99.90;;;;;;4925178;29;20044;-71
2022/01/04 07:28:43;;;;;;;;;;;7.90;99.90;;;;;;4894273;29;20549;-69
2022/01/04 07:31:09;;;;;;;26.27;6.80;;;7.80;99.90;;;;;;4920864;29;20010;-71
2022/01/04 07:33:35;;;;;;;24.77;7.47;;;7.90;99.90;;;;;;4928557;29;20499;-71
2022/01/04 07:36:02;;;;;;;33.28;8.75;;;7.90;99.90;;;;;;4910500;29;20044;-71
2022/01/04 07:38:28;;;;;;;24.15;8.88;;;7.90;99.90;;;;;;4910635;29;20107;-70
2022/01/04 07:40:54;;;;;;;30.55;9.38;;;7.90;99.90;;;;;;4909083;29;20081;-70
2022/01/04 07:43:19;;;;;;;24.67;8.73;;;7.90;99.90;;;;;;4928564;29;20044;-70
2022/01/04 07:45:45;;;;;;;23.80;8.00;;;7.80;99.90;;;;;;4911275;29;20127;-70
2022/01/04 07:48:11;;;;;;;31.20;9.60;;;7.80;99.90;;;;;;4926358;29;20397;-70
2022/01/04 07:50:38;;;;;;;27.10;7.60;;;7.90;99.90;;;;;;4927021;29;20059;-70
2022/01/04 07:53:04;;;;;;;24.30;8.10;;;7.80;99.90;;;;;;4910610;29;20048;-70
2022/01/04 07:55:30;;;;;;;27.70;7.28;;;7.80;99.90;;;;;;4910878;29;20535;-70
2022/01/04 07:57:56;;;;;;;26.35;7.35;;;7.80;99.90;;;;;;4938637;29;20056;-70
2022/01/04 08:00:21;;;;;;;30.73;7.27;;;7.80;99.90;;;;;;4920355;29;20063;-71
2022/01/04 08:02:47;;;;;;;32.03;7.83;;;7.80;99.90;;;;;;4910317;29;20080;-69
2022/01/04 08:05:13;;;;;;;25.02;7.43;;;7.80;99.90;;;;;;4927396;29;20660;-72
2022/01/04 08:07:39;;;;;;;23.25;6.65;;;7.80;99.90;;;;;;4926268;29;20480;-71
2022/01/04 08:10:06;;;;;;;26.08;6.72;;;7.80;99.90;;;;;;4926840;29;20052;-68
2022/01/04 08:12:31;;;;;;;33.47;6.82;;;7.80;99.90;;;;;;4919220;29;20059;-72
2022/01/04 08:14:57;;;;;;;29.40;7.13;;;7.80;99.90;;;;;;4892221;29;20048;-71
2022/01/04 08:17:23;;;;;;;38.08;7.60;;;7.80;99.90;;;;;;4914448;29;20300;-73
2022/01/04 08:19:51;;;;;;;32.00;9.40;;;7.80;99.90;;;;;;4902063;29;20059;-70
2022/01/04 08:22:17;;;;;;;35.92;7.57;;;7.80;99.90;;;;;;4910854;29;20059;-70
2022/01/04 08:24:43;;;;;;;37.08;7.68;;;7.80;99.90;;;;;;4932229;29;20048;-73
2022/01/04 08:27:08;;;;;;;32.93;7.27;;;7.80;99.90;;;;;;4910269;29;20112;-70
2022/01/04 08:29:34;;;;;;;34.95;8.15;;;7.80;99.90;;;;;;4910231;29;20044;-74
2022/01/04 08:32:08;;;;;;;29.20;7.85;;;7.80;99.90;;;;;;4908253;29;20044;-70
2022/01/04 08:34:33;;;;;;;36.70;8.18;;;7.80;99.90;;;;;;4910445;29;20079;-71
2022/01/04 08:36:59;;;;;;;29.43;6.93;;;7.80;99.90;;;;;;4910503;29;20048;-71
2022/01/04 08:39:26;;;;;;;30.90;8.37;;;7.80;99.90;;;;;;4927248;29;20360;-71
2022/01/04 08:41:55;;;;;;;35.30;7.68;;;7.80;99.90;;;;;;4927055;29;20355;-71
2022/01/04 08:44:22;;;;;;;32.78;6.75;;;7.80;99.90;;;;;;4926675;29;20059;-71
2022/01/04 08:46:49;;;;;;;30.35;7.43;;;7.80;99.90;;;;;;4927203;29;20048;-71
2022/01/04 08:49:14;;;;;;;31.17;7.28;;;7.80;99.90;;;;;;4927033;29;20506;-72
2022/01/04 08:51:40;;;;;;;31.25;7.28;;;7.80;99.90;;;;;;4910235;29;20079;-70
2022/01/04 08:54:06;;;;;;;28.00;7.00;;;7.80;99.90;;;;;;4908895;29;20047;-79
2022/01/04 08:56:33;;;;;;;31.85;7.15;;;7.80;99.90;;;;;;4909989;29;20050;-67
2022/01/04 08:58:59;;;;;;;19.75;5.47;;;7.90;99.90;;;;;;4941546;29;20131;-71
2022/01/04 09:01:25;;;;;;;9.85;2.38;;;7.80;99.90;;;;;;4926976;29;20475;-66
2022/01/04 09:03:50;;;;;;;8.57;2.03;;;7.70;99.90;;;;;;4921938;29;20048;-67
2022/01/04 09:06:16;;;;;;;7.50;2.10;;;7.50;99.90;;;;;;4914847;29;20044;-68
2022/01/04 09:08:43;;;;;;;10.60;2.67;;;7.30;99.90;;;;;;4909680;29;20104;-69
2022/01/04 09:11:15;;;;;;;12.57;3.40;;;7.30;99.90;;;;;;4910187;29;20076;-68
2022/01/04 09:13:43;;;;;;;11.88;2.13;;;7.20;99.90;;;;;;4909452;29;20048;-67
2022/01/04 09:18:48;;;;;;;8.38;2.53;;;7.10;99.90;;;;;;4905745;29;20090;-70
2022/01/04 09:21:19;;;;;;;9.95;2.33;;;7.10;99.90;;;;;;4924002;29;20066;-68
2022/01/04 09:23:46;;;;;;;10.13;2.00;;;7.10;99.90;;;;;;4915165;29;20097;-67
2022/01/04 09:26:13;;;;;;;10.02;2.05;;;7.00;99.90;;;;;;4939747;29;20116;-71
2022/01/04 09:28:38;;;;;;;12.93;2.38;;;7.00;99.90;;;;;;4908961;29;20131;-68
2022/01/04 09:31:04;;;;;;;11.20;3.08;;;7.00;99.90;;;;;;4903293;29;20135;-68
2022/01/04 09:33:31;;;;;;;5.95;2.28;;;6.90;99.90;;;;;;4909079;29;20056;-67
2022/01/04 09:35:57;;;;;;;8.57;2.42;;;7.00;99.90;;;;;;4908348;29;20131;-67
2022/01/04 09:38:23;;;;;;;17.25;3.17;;;7.00;99.90;;;;;;4909112;29;20055;-67
2022/01/04 09:40:49;;;;;;;10.57;1.65;;;6.90;99.90;;;;;;4909325;29;20455;-66
2022/01/04 09:43:17;;;;;;;9.35;2.15;;;6.90;99.90;;;;;;4913605;29;20060;-68
2022/01/04 09:45:43;;;;;;;7.10;2.45;;;6.90;99.90;;;;;;4930100;29;20055;-67
2022/01/04 09:48:08;;;;;;;12.13;2.60;;;6.80;99.90;;;;;;4912517;29;20115;-68
2022/01/04 09:50:38;;;;;;;11.13;2.63;;;6.80;99.90;;;;;;4929520;29;20092;-68
2022/01/04 09:53:07;;;;;;;12.23;2.45;;;6.80;99.90;;;;;;4930233;29;20119;-66
2022/01/04 09:55:34;;;;;;;6.38;2.03;;;6.80;99.90;;;;;;4912928;29;20095;-66
2022/01/04 09:58:00;;;;;;;6.78;1.90;;;6.70;99.90;;;;;;4919972;29;20492;-71
2022/01/04 10:00:27;;;;;;;8.75;2.15;;;6.70;99.90;;;;;;4925701;29;20055;-68
2022/01/04 10:03:14;;;;;;;8.00;1.50;;;6.70;99.90;;;;;;4929136;29;20052;-68
2022/01/04 10:05:40;;;;;;;8.87;1.80;;;6.70;99.90;;;;;;4930319;29;20136;-68
2022/01/04 10:08:08;;;;;;;3.63;1.50;;;6.60;99.90;;;;;;4906076;29;20473;-68
2022/01/04 10:10:35;;;;;;;4.07;1.80;;;6.60;99.90;;;;;;4905282;29;20096;-68
2022/01/04 10:13:04;;;;;;;6.95;1.70;;;6.50;99.90;;;;;;4909668;29;20076;-68
2022/01/04 10:15:33;;;;;;;4.10;1.63;;;6.40;99.90;;;;;;4924091;29;20047;-68
2022/01/04 10:18:14;;;;;;;6.53;1.40;;;6.40;99.90;;;;;;4912098;29;20062;-64
2022/01/04 10:20:41;;;;;;;7.20;1.80;;;6.30;99.90;;;;;;4923719;29;20047;-69
2022/01/04 10:23:16;;;;;;;6.40;1.73;;;6.20;99.90;;;;;;4935551;29;20054;-69
2022/01/04 10:25:42;;;;;;;7.85;1.70;;;6.20;99.90;;;;;;4914503;29;20052;-69
2022/01/04 10:28:08;;;;;;;4.50;1.45;;;6.10;99.90;;;;;;4912506;29;20056;-69
2022/01/04 10:30:36;;;;;;;4.45;1.58;;;6.10;99.90;;;;;;4911718;29;20048;-70
2022/01/04 10:33:07;;;;;;;2.38;1.35;;;6.10;99.90;;;;;;4929793;29;20044;-70
2022/01/04 10:35:48;;;;;;;2.97;1.10;;;6.00;99.90;;;;;;4898532;29;20342;-71
2022/01/04 10:38:23;;;;;;;5.75;1.50;;;6.10;99.90;;;;;;4912209;29;20072;-70
2022/01/04 10:41:11;;;;;;;2.35;0.98;;;6.10;99.90;;;;;;4926856;29;20068;-70
2022/01/04 10:43:46;;;;;;;5.53;1.52;;;6.10;99.90;;;;;;4910944;29;20052;-70
2022/01/04 10:46:18;;;;;;;4.93;1.55;;;6.20;99.90;;;;;;4911070;29;20489;-69
2022/01/04 10:48:46;;;;;;;3.75;1.00;;;6.20;99.90;;;;;;4911388;29;20059;-70
2022/01/04 10:51:21;;;;;;;5.20;1.02;;;6.20;99.90;;;;;;4910952;29;20453;-68
2022/01/04 10:53:53;;;;;;;5.68;1.40;;;6.20;99.90;;;;;;4942757;29;20048;-68
2022/01/04 10:56:33;;;;;;;3.58;1.10;;;6.20;99.90;;;;;;4911640;29;20055;-68
2022/01/04 10:59:08;;;;;;;10.63;2.25;;;6.20;99.90;;;;;;4911878;29;20055;-68
2022/01/04 11:01:42;;;;;;;3.90;1.08;;;6.20;99.90;;;;;;4911900;29;20075;-69
2022/01/04 11:04:16;;;;;;;2.78;0.98;;;6.20;99.90;;;;;;4911803;29;20139;-72
2022/01/04 11:06:43;;;;;;;1.58;0.80;;;6.10;99.90;;;;;;4912145;29;20127;-68
2022/01/04 11:09:10;;;;;;;5.47;1.27;;;6.00;99.90;;;;;;4911581;29;20479;-66
2022/01/04 11:11:36;;;;;;;2.60;0.80;;;6.00;99.90;;;;;;4910927;29;20044;-68
2022/01/04 11:14:02;;;;;;;5.75;1.38;;;5.90;99.90;;;;;;4911118;29;20087;-66
2022/01/04 11:16:30;;;;;;;6.28;2.17;;;5.90;99.90;;;;;;4938398;29;20054;-67
2022/01/04 11:18:57;;;;;;;8.55;1.67;;;5.90;99.90;;;;;;4937226;29;20044;-70
2022/01/04 11:21:35;;;;;;;14.95;1.77;;;5.80;99.90;;;;;;4929016;29;20075;-68
2022/01/04 11:24:04;;;;;;;10.63;1.80;;;5.80;99.90;;;;;;4915307;29;20129;-69
2022/01/04 11:26:30;;;;;;;5.72;1.35;;;5.80;99.90;;;;;;4911602;29;20068;-68
2022/01/04 11:28:56;;;;;;;4.57;1.88;;;5.80;99.90;;;;;;4928633;29;20050;-67
2022/01/04 11:31:22;;;;;;;;;;;5.80;99.90;;;;;;4911898;29;20099;-66
2022/01/04 11:33:58;;;;;;;10.90;1.77;;;5.80;99.90;;;;;;4926693;29;19982;-66
2022/01/04 11:36:25;;;;;;;7.53;1.38;;;5.90;99.90;;;;;;4911306;29;20047;-66
2022/01/04 11:38:51;;;;;;;6.53;1.80;;;5.90;99.90;;;;;;4926876;29;20519;-65
2022/01/04 11:41:23;;;;;;;10.00;2.15;;;6.00;99.90;;;;;;4908176;29;20127;-66
2022/01/04 11:43:49;;;;;;;6.72;2.20;;;6.00;99.90;;;;;;4924943;29;20068;-67
2022/01/04 11:46:36;;;;;;;9.98;2.00;;;6.00;99.90;;;;;;4918127;29;20048;-67
2022/01/04 11:49:12;;;;;;;9.48;1.90;;;6.00;99.90;;;;;;4927938;29;20048;-69
2022/01/04 11:51:41;;;;;;;7.32;1.60;;;6.10;99.90;;;;;;4911014;29;20052;-67
2022/01/04 11:54:30;;;;;;;6.78;1.60;;;6.10;99.90;;;;;;4918996;29;20131;-67
2022/01/04 11:56:57;;;;;;;5.18;1.88;;;6.10;99.90;;;;;;4927995;29;20044;-67
2022/01/04 11:59:26;;;;;;;7.97;1.77;;;6.20;99.90;;;;;;4910936;29;20040;-66
2022/01/04 12:01:53;;;;;;;4.60;1.63;;;6.20;99.90;;;;;;4928142;29;20052;-68
2022/01/04 12:04:55;;;;;;;9.63;2.55;;;6.20;99.90;;;;;;4920428;29;20120;-70
2022/01/04 12:07:42;;;;;;;8.32;1.48;;;6.20;99.90;;;;;;4869264;29;20482;-69
2022/01/04 12:10:22;;;;;;;4.40;1.42;;;6.30;99.90;;;;;;4869560;29;20061;-69
2022/01/04 12:12:59;;;;;;;7.70;2.00;;;6.30;99.90;;;;;;4869172;29;20119;-70
2022/01/04 12:15:55;;;;;;;6.88;1.90;;;6.30;99.90;;;;;;4867678;29;20098;-70
2022/01/04 12:18:23;;;;;;;8.45;2.10;;;6.30;99.90;;;;;;4850209;29;20058;-69
2022/01/04 12:20:52;;;;;;;8.02;1.88;;;6.40;99.90;;;;;;4850730;29;20054;-70
2022/01/04 12:23:26;;;;;;;6.75;1.77;;;6.40;99.90;;;;;;4845901;29;20054;-77
2022/01/04 12:29:05;;;;;;;11.77;2.15;;;6.40;99.90;;;;;;4868948;29;20125;-70
2022/01/04 12:31:35;;;;;;;9.55;2.22;;;6.30;99.90;;;;;;4872914;29;20103;-71
2022/01/04 12:34:02;;;;;;;10.43;2.33;;;6.30;99.90;;;;;;4857329;29;20068;-69
2022/01/04 12:36:37;;;;;;;8.30;2.03;;;6.30;99.90;;;;;;4868877;29;20096;-70
2022/01/04 12:39:12;;;;;;;7.50;1.83;;;6.30;99.90;;;;;;4876745;29;20137;-69
2022/01/04 12:41:40;;;;;;;6.70;1.98;;;6.30;99.90;;;;;;4911496;29;20544;-71
2022/01/04 12:44:07;;;;;;;11.63;2.13;;;6.20;99.90;;;;;;4927536;29;20095;-69
2022/01/04 12:46:35;;;;;;;6.05;1.83;;;6.20;99.90;;;;;;4923476;29;20116;-69
2022/01/04 12:49:08;;;;;;;5.13;1.52;;;6.20;99.90;;;;;;4909732;29;20460;-70
2022/01/04 12:51:35;;;;;;;7.20;2.15;;;6.20;99.90;;;;;;4910033;29;20107;-71
2022/01/04 12:54:07;;;;;;;7.53;1.92;;;6.20;99.90;;;;;;4893947;29;20115;-69
2022/01/04 12:56:43;;;;;;;7.15;1.77;;;6.20;99.90;;;;;;4925829;29;20040;-69
2022/01/04 12:59:10;;;;;;;8.43;1.73;;;6.20;99.90;;;;;;4891760;29;20056;-69
2022/01/04 13:01:36;;;;;;;8.00;2.05;;;6.30;99.90;;;;;;4926904;29;20040;-71
2022/01/04 13:04:17;;;;;;;4.20;1.58;;;6.30;99.90;;;;;;4926853;29;20472;-70
2022/01/04 13:06:43;;;;;;;12.18;2.58;;;6.30;99.90;;;;;;4926991;29;20072;-70
2022/01/04 13:09:08;;;;;;;5.07;1.80;;;6.30;99.90;;;;;;4909445;29;20059;-70